createdAt,value
2019-02-22T00:01:30.027Z,42.20
2019-02-22T00:03:05.395Z,40.20
2019-02-22T00:04:43.066Z,42.60
2019-02-22T00:06:40.393Z,43.20
2019-02-22T00:08:16.398Z,37.80
2019-02-22T00:09:51.893Z,33.20
2019-02-22T00:11:27.597Z,46.20
2019-02-22T00:13:03.297Z,46.40
2019-02-22T00:14:44.488Z,43.40
2019-02-22T00:16:44.771Z,51.20
2019-02-22T00:18:22.283Z,42.00
2019-02-22T00:19:57.879Z,43.80
2019-02-22T00:21:35.711Z,40.60
2019-02-22T00:23:11.806Z,51.40
2019-02-22T00:24:47.552Z,37.40
2019-02-22T00:26:26.640Z,44.40
2019-02-22T00:28:00.072Z,42.00
2019-02-22T00:29:44.889Z,46.40
2019-02-22T00:31:20.304Z,48.80
2019-02-22T00:32:56.027Z,39.80
2019-02-22T00:34:31.571Z,45.00
2019-02-22T00:36:07.247Z,34.80
2019-02-22T00:37:43.873Z,18.80
2019-02-22T00:39:19.048Z,29.60
2019-02-22T00:40:59.302Z,30.40
2019-02-22T00:42:39.927Z,19.40
2019-02-22T00:44:15.379Z,47.60
2019-02-22T00:45:50.734Z,30.80
2019-02-22T00:47:35.354Z,25.00
2019-02-22T00:49:10.803Z,21.00
2019-02-22T00:50:47.050Z,26.60
2019-02-22T00:52:23.759Z,32.20
2019-02-22T00:53:59.233Z,21.40
2019-02-22T00:55:36.905Z,22.00
2019-02-22T00:57:13.028Z,36.40
2019-02-22T00:58:49.770Z,38.60
2019-02-22T01:00:28.238Z,39.40
2019-02-22T01:02:12.000Z,38.80
2019-02-22T01:03:48.872Z,30.00
2019-02-22T01:05:28.684Z,37.60
2019-02-22T01:07:09.053Z,30.80
2019-02-22T01:08:45.401Z,27.00
2019-02-22T01:10:30.872Z,27.60
2019-02-22T01:11:58.142Z,25.60
2019-02-22T01:13:33.517Z,30.20
2019-02-22T01:15:09.928Z,33.60
2019-02-22T01:16:46.462Z,27.80
2019-02-22T01:18:22.321Z,34.60
2019-02-22T01:20:00.711Z,28.20
2019-02-22T01:21:38.981Z,31.40
2019-02-22T01:23:14.533Z,27.60
2019-02-22T01:24:51.000Z,18.60
2019-02-22T01:26:29.129Z,24.60
2019-02-22T01:28:05.452Z,23.20
2019-02-22T01:29:40.769Z,29.20
2019-02-22T01:31:18.310Z,23.20
2019-02-22T01:32:55.243Z,34.80
2019-02-22T01:34:30.532Z,27.60
2019-02-22T01:36:07.681Z,16.20
2019-02-22T01:37:43.196Z,26.00
2019-02-22T01:39:18.952Z,23.40
2019-02-22T01:40:54.995Z,30.80
2019-02-22T01:42:30.388Z,19.20
2019-02-22T01:44:05.662Z,20.60
2019-02-22T01:45:40.823Z,25.60
2019-02-22T01:47:16.802Z,26.60
2019-02-22T01:48:55.497Z,19.00
2019-02-22T01:50:30.674Z,21.60
2019-02-22T01:52:09.741Z,29.00
2019-02-22T01:53:47.530Z,21.60
2019-02-22T01:55:22.884Z,22.60
2019-02-22T01:56:58.512Z,21.80
2019-02-22T01:58:33.654Z,22.40
2019-02-22T02:00:10.365Z,21.60
2019-02-22T02:01:45.777Z,27.60
2019-02-22T02:03:21.556Z,27.80
2019-02-22T02:04:57.202Z,19.00
2019-02-22T02:06:32.904Z,21.00
2019-02-22T02:08:10.212Z,20.20
2019-02-22T02:09:45.498Z,22.20
2019-02-22T02:11:20.919Z,22.20
2019-02-22T02:12:57.151Z,11.40
2019-02-22T02:14:32.533Z,21.80
2019-02-22T02:16:08.590Z,27.00
2019-02-22T02:17:46.093Z,28.00
2019-02-22T02:19:45.179Z,23.00
2019-02-22T02:21:18.926Z,22.00
2019-02-22T02:23:02.565Z,23.00
2019-02-22T02:24:40.516Z,21.60
2019-02-22T02:26:16.347Z,22.40
2019-02-22T02:27:51.591Z,22.00
2019-02-22T02:29:27.064Z,28.40
2019-02-22T02:31:15.910Z,27.60
2019-02-22T02:32:57.267Z,18.20
2019-02-22T02:34:35.131Z,11.20
2019-02-22T02:36:19.557Z,7.40
2019-02-22T02:38:02.322Z,24.00
2019-02-22T02:39:38.211Z,19.40
2019-02-22T02:41:16.099Z,23.00
2019-02-22T02:42:51.888Z,21.80
2019-02-22T02:44:27.665Z,21.20
2019-02-22T02:46:02.952Z,20.60
2019-02-22T02:47:39.075Z,6.40
2019-02-22T02:49:14.307Z,18.80
2019-02-22T02:50:49.466Z,22.80
2019-02-22T02:52:45.354Z,25.20
2019-02-22T02:54:21.009Z,13.60
2019-02-22T02:56:02.699Z,18.00
2019-02-22T02:57:46.873Z,19.00
2019-02-22T02:59:44.171Z,17.60
2019-02-22T03:01:21.451Z,15.20
2019-02-22T03:03:27.566Z,19.80
2019-02-22T03:05:02.753Z,16.40
2019-02-22T03:06:44.547Z,17.40
2019-02-22T03:08:20.718Z,10.00
2019-02-22T03:09:59.056Z,19.20
2019-02-22T03:11:34.397Z,21.20
2019-02-22T03:13:09.957Z,23.80
2019-02-22T03:14:45.175Z,17.60
2019-02-22T03:16:22.231Z,21.60
2019-02-22T03:17:59.980Z,19.60
2019-02-22T03:19:41.242Z,15.80
2019-02-22T03:21:16.806Z,15.00
2019-02-22T03:22:53.196Z,15.20
2019-02-22T03:24:28.721Z,20.60
2019-02-22T03:26:05.503Z,19.00
2019-02-22T03:27:44.985Z,21.80
2019-02-22T03:29:20.590Z,12.40
2019-02-22T03:30:56.350Z,13.40
2019-02-22T03:32:31.911Z,23.80
2019-02-22T03:34:07.648Z,21.60
2019-02-22T03:35:43.936Z,20.20
2019-02-22T03:37:19.572Z,22.00
2019-02-22T03:38:55.334Z,18.60
2019-02-22T03:40:31.010Z,16.20
2019-02-22T03:42:06.223Z,20.40
2019-02-22T03:43:43.843Z,13.40
2019-02-22T03:45:20.868Z,16.80
2019-02-22T03:46:56.624Z,16.80
2019-02-22T03:48:33.028Z,20.20
2019-02-22T03:50:15.165Z,19.80
2019-02-22T03:51:51.615Z,18.00
2019-02-22T03:53:37.240Z,12.00
2019-02-22T03:55:12.490Z,13.80
2019-02-22T03:56:47.748Z,20.60
2019-02-22T03:58:23.479Z,22.00
2019-02-22T03:59:58.773Z,18.00
2019-02-22T04:01:35.882Z,17.60
2019-02-22T04:03:11.538Z,14.40
2019-02-22T04:04:48.350Z,15.60
2019-02-22T04:06:24.354Z,15.40
2019-02-22T04:07:59.999Z,15.00
2019-02-22T04:09:36.971Z,15.00
2019-02-22T04:11:12.188Z,15.00
2019-02-22T04:12:47.712Z,13.20
2019-02-22T04:14:23.580Z,13.40
2019-02-22T04:15:58.927Z,15.00
2019-02-22T04:17:36.042Z,15.60
2019-02-22T04:19:17.188Z,17.80
2019-02-22T04:20:52.682Z,16.20
2019-02-22T04:22:31.633Z,16.00
2019-02-22T04:24:07.274Z,13.00
2019-02-22T04:25:42.453Z,13.80
2019-02-22T04:27:17.893Z,10.60
2019-02-22T04:28:55.832Z,10.40
2019-02-22T04:30:31.128Z,13.20
2019-02-22T04:32:06.385Z,13.00
2019-02-22T04:33:41.739Z,15.00
2019-02-22T04:35:19.369Z,9.60
2019-02-22T04:36:55.337Z,15.40
2019-02-22T04:38:30.881Z,15.20
2019-02-22T04:40:06.039Z,13.00
2019-02-22T04:41:41.338Z,13.00
2019-02-22T04:43:16.735Z,14.60
2019-02-22T04:44:52.462Z,13.00
2019-02-22T04:46:28.119Z,11.40
2019-02-22T04:48:03.386Z,4.00
2019-02-22T04:49:38.531Z,12.40
2019-02-22T04:51:13.813Z,15.60
2019-02-22T04:52:50.481Z,6.40
2019-02-22T04:54:25.892Z,9.20
2019-02-22T04:56:01.249Z,14.20
2019-02-22T04:57:37.172Z,14.80
2019-02-22T04:59:12.466Z,11.60
2019-02-22T05:00:48.326Z,14.40
2019-02-22T05:02:23.889Z,7.80
2019-02-22T05:03:59.581Z,10.40
2019-02-22T05:05:34.865Z,13.80
2019-02-22T05:07:10.228Z,12.40
2019-02-22T05:08:47.520Z,15.20
2019-02-22T05:10:22.909Z,13.80
2019-02-22T05:12:10.095Z,10.80
2019-02-22T05:13:36.716Z,10.20
2019-02-22T05:15:13.404Z,11.60
2019-02-22T05:16:49.377Z,9.80
2019-02-22T05:18:24.643Z,11.60
2019-02-22T05:19:59.914Z,15.80
2019-02-22T05:21:35.193Z,12.00
2019-02-22T05:23:11.831Z,10.00
2019-02-22T05:24:50.132Z,12.80
2019-02-22T05:26:28.113Z,10.80
2019-02-22T05:28:03.373Z,10.80
2019-02-22T05:29:38.799Z,12.40
2019-02-22T05:31:15.089Z,13.00
2019-02-22T05:32:51.407Z,11.20
2019-02-22T05:34:27.139Z,8.20
2019-02-22T05:36:05.999Z,12.80
2019-02-22T05:37:42.144Z,12.40
2019-02-22T05:39:20.377Z,12.60
2019-02-22T05:40:55.958Z,12.00
2019-02-22T05:42:31.813Z,8.20
2019-02-22T05:44:07.556Z,6.00
2019-02-22T05:45:44.405Z,15.20
2019-02-22T05:47:22.648Z,6.00
2019-02-22T05:48:58.219Z,6.80
2019-02-22T05:50:33.577Z,8.80
2019-02-22T05:52:11.735Z,12.80
2019-02-22T05:53:51.597Z,7.80
2019-02-22T05:55:31.816Z,4.80
2019-02-22T05:57:08.059Z,12.40
2019-02-22T05:58:43.504Z,8.80
2019-02-22T06:00:21.327Z,6.00
2019-02-22T06:01:58.002Z,6.20
2019-02-22T06:03:35.182Z,8.40
2019-02-22T06:05:12.202Z,9.60
2019-02-22T06:06:50.447Z,10.80
2019-02-22T06:08:30.035Z,10.00
2019-02-22T06:10:15.991Z,7.40
2019-02-22T06:11:57.472Z,8.60
2019-02-22T06:13:36.042Z,9.20
2019-02-22T06:15:24.527Z,10.40
2019-02-22T06:17:14.584Z,8.20
2019-02-22T06:19:11.237Z,7.80
2019-02-22T06:20:53.898Z,6.80
2019-02-22T06:23:00.522Z,12.20
2019-02-22T06:24:50.292Z,8.00
2019-02-22T06:26:42.634Z,6.00
2019-02-22T06:28:23.226Z,10.20
2019-02-22T06:30:10.010Z,9.80
2019-02-22T06:31:49.703Z,9.60
2019-02-22T06:33:28.589Z,9.60
2019-02-22T06:35:09.240Z,7.40
2019-02-22T06:36:45.591Z,9.40
2019-02-22T06:38:26.146Z,8.60
2019-02-22T06:40:03.721Z,10.40
2019-02-22T06:41:43.612Z,12.20
2019-02-22T06:43:25.543Z,10.20
2019-02-22T06:45:00.829Z,12.40
2019-02-22T06:46:40.965Z,8.60
2019-02-22T06:48:21.594Z,8.20
2019-02-22T06:50:02.835Z,6.20
2019-02-22T06:51:39.875Z,9.20
2019-02-22T06:53:17.330Z,18.00
2019-02-22T06:54:53.053Z,10.00
2019-02-22T06:56:31.453Z,10.80
2019-02-22T06:58:07.090Z,7.00
2019-02-22T06:59:45.153Z,6.00
2019-02-22T07:01:24.738Z,9.40
2019-02-22T07:03:00.415Z,5.60
2019-02-22T07:04:49.989Z,5.60
2019-02-22T07:06:29.167Z,8.20
2019-02-22T07:08:04.877Z,13.80
2019-02-22T07:09:40.063Z,6.80
2019-02-22T07:11:38.044Z,6.80
2019-02-22T07:13:13.402Z,7.00
2019-02-22T07:14:48.667Z,8.20
2019-02-22T07:16:23.859Z,9.40
2019-02-22T07:18:06.762Z,9.80
2019-02-22T07:19:53.025Z,8.60
2019-02-22T07:21:49.147Z,6.00
2019-02-22T07:23:12.712Z,15.60
2019-02-22T07:24:53.683Z,3.60
2019-02-22T07:26:49.827Z,13.00
2019-02-22T07:28:30.194Z,11.80
2019-02-22T07:30:09.824Z,7.60
2019-02-22T07:31:48.124Z,9.80
2019-02-22T07:33:23.621Z,10.00
2019-02-22T07:35:00.630Z,11.60
2019-02-22T07:36:35.921Z,9.40
2019-02-22T07:38:12.033Z,11.20
2019-02-22T07:39:49.399Z,12.00
2019-02-22T07:41:24.848Z,11.20
2019-02-22T07:43:07.775Z,8.60
2019-02-22T07:44:38.188Z,12.40
2019-02-22T07:46:13.708Z,10.00
2019-02-22T07:47:49.334Z,11.20
2019-02-22T07:49:26.327Z,8.40
2019-02-22T07:51:05.019Z,12.20
2019-02-22T07:52:45.206Z,9.20
2019-02-22T07:54:32.300Z,10.40
2019-02-22T07:56:10.227Z,5.60
2019-02-22T07:57:45.698Z,6.80
2019-02-22T07:59:24.081Z,4.20
2019-02-22T08:01:07.907Z,10.40
2019-02-22T08:02:46.407Z,9.00
2019-02-22T08:04:37.444Z,8.60
2019-02-22T08:06:11.294Z,11.00
2019-02-22T08:07:48.937Z,7.80
2019-02-22T08:09:27.706Z,4.00
2019-02-22T08:11:03.823Z,4.80
2019-02-22T08:12:39.201Z,6.80
2019-02-22T08:14:14.353Z,8.20
2019-02-22T08:15:53.242Z,7.00
2019-02-22T08:17:28.788Z,7.80
2019-02-22T08:19:06.229Z,3.20
2019-02-22T08:20:41.220Z,8.80
2019-02-22T08:22:17.264Z,7.40
2019-02-22T08:23:57.901Z,6.20
2019-02-22T08:25:33.291Z,4.40
2019-02-22T08:27:08.349Z,7.40
2019-02-22T08:28:49.402Z,6.00
2019-02-22T08:30:24.749Z,6.80
2019-02-22T08:32:01.735Z,13.20
2019-02-22T08:33:44.611Z,6.60
2019-02-22T08:35:21.225Z,12.80
2019-02-22T08:36:57.183Z,9.00
2019-02-22T08:38:32.685Z,15.60
2019-02-22T08:40:12.938Z,7.40
2019-02-22T08:41:48.883Z,17.00
2019-02-22T08:43:31.610Z,10.80
2019-02-22T08:47:51.388Z,6.40
2019-02-22T08:49:26.678Z,6.80
2019-02-22T08:51:09.962Z,4.40
2019-02-22T08:52:52.877Z,7.00
2019-02-22T08:54:30.897Z,9.00
2019-02-22T08:56:15.173Z,6.00
2019-02-22T08:58:19.324Z,6.00
2019-02-22T09:00:05.434Z,5.60
2019-02-22T09:01:40.943Z,3.40
2019-02-22T09:03:25.898Z,7.00
2019-02-22T09:05:06.303Z,7.00
2019-02-22T09:06:45.447Z,8.80
2019-02-22T09:08:21.099Z,7.40
2019-02-22T09:09:59.954Z,7.00
2019-02-22T09:11:41.346Z,6.00
2019-02-22T09:13:20.855Z,6.20
2019-02-22T09:14:58.394Z,7.00
2019-02-22T09:16:33.801Z,6.00
2019-02-22T09:18:13.280Z,7.00
2019-02-22T09:19:48.614Z,5.80
2019-02-22T09:21:25.973Z,4.00
2019-02-22T09:23:07.509Z,4.80
2019-02-22T09:24:56.876Z,5.80
2019-02-22T09:27:13.332Z,5.20
2019-02-22T09:28:55.476Z,3.60
2019-02-22T09:30:38.007Z,4.00
2019-02-22T09:32:13.473Z,6.20
2019-02-22T09:33:58.414Z,4.80
2019-02-22T09:35:48.667Z,6.00
2019-02-22T09:37:24.630Z,7.20
2019-02-22T09:39:05.333Z,10.00
2019-02-22T09:40:46.245Z,6.60
2019-02-22T09:42:39.709Z,7.00
2019-02-22T09:44:26.999Z,6.20
2019-02-22T09:46:05.141Z,6.00
2019-02-22T09:47:57.606Z,6.20
2019-02-22T09:49:33.360Z,4.40
2019-02-22T09:51:22.961Z,5.20
2019-02-22T09:53:02.625Z,3.00
2019-02-22T09:54:39.388Z,9.00
2019-02-22T09:56:17.991Z,9.00
2019-02-22T09:58:08.944Z,9.40
2019-02-22T09:59:47.524Z,3.80
2019-02-22T10:01:28.002Z,7.20
2019-02-22T10:03:09.620Z,9.00
2019-02-22T10:04:54.608Z,6.60
2019-02-22T10:06:26.618Z,9.40
2019-02-22T10:08:03.000Z,5.60
2019-02-22T10:09:40.380Z,1.00
2019-02-22T10:11:19.532Z,10.00
2019-02-22T10:13:06.711Z,4.00
2019-02-22T10:14:45.736Z,7.40
2019-02-22T10:16:27.524Z,6.00
2019-02-22T10:18:18.186Z,6.00
2019-02-22T10:20:01.950Z,6.20
2019-02-22T10:21:44.667Z,8.00
2019-02-22T10:23:21.199Z,9.00
2019-02-22T10:25:05.186Z,6.80
2019-02-22T10:26:59.441Z,7.00
2019-02-22T10:28:38.022Z,8.20
2019-02-22T10:30:17.448Z,7.00
2019-02-22T10:31:58.456Z,5.20
2019-02-22T10:33:38.366Z,5.60
2019-02-22T10:35:19.372Z,6.00
2019-02-22T10:36:54.902Z,9.60
2019-02-22T10:38:36.375Z,4.00
2019-02-22T10:40:11.963Z,3.00
2019-02-22T10:41:49.343Z,3.60
2019-02-22T10:43:28.029Z,5.60
2019-02-22T10:45:05.955Z,8.20
2019-02-22T10:46:43.747Z,8.60
2019-02-22T10:48:23.907Z,4.80
2019-02-22T10:50:04.250Z,2.60
2019-02-22T10:51:41.743Z,7.00
2019-02-22T10:53:20.745Z,6.40
2019-02-22T10:54:55.759Z,6.40
2019-02-22T10:56:39.137Z,4.00
2019-02-22T10:58:14.195Z,8.20
2019-02-22T10:59:52.538Z,3.00
2019-02-22T11:01:36.004Z,6.40
2019-02-22T11:03:13.529Z,7.80
2019-02-22T11:04:52.184Z,6.00
2019-02-22T11:06:31.425Z,4.40
2019-02-22T11:08:19.704Z,9.20
2019-02-22T11:09:59.318Z,5.60
2019-02-22T11:11:38.686Z,4.40
2019-02-22T11:13:16.243Z,7.00
2019-02-22T11:14:54.604Z,7.20
2019-02-22T11:16:29.626Z,4.40
2019-02-22T11:18:10.078Z,9.00
2019-02-22T11:19:49.230Z,6.00
2019-02-22T11:21:25.221Z,5.20
2019-02-22T11:23:02.088Z,8.20
2019-02-22T11:24:39.963Z,7.40
2019-02-22T11:26:17.598Z,4.00
2019-02-22T11:27:52.653Z,7.00
2019-02-22T11:29:30.694Z,4.00
2019-02-22T11:31:11.664Z,6.40
2019-02-22T11:32:45.622Z,4.40
2019-02-22T11:34:33.075Z,7.00
2019-02-22T11:36:13.682Z,4.80
2019-02-22T11:37:52.298Z,4.00
2019-02-22T11:39:31.064Z,6.80
2019-02-22T11:41:06.316Z,6.80
2019-02-22T11:42:42.558Z,10.20
2019-02-22T11:44:21.443Z,11.00
2019-02-22T11:45:59.124Z,9.00
2019-02-22T11:47:34.229Z,10.00
2019-02-22T11:49:10.730Z,4.00
2019-02-22T11:50:49.162Z,9.60
2019-02-22T11:52:24.450Z,6.60
2019-02-22T11:54:00.204Z,11.00
2019-02-22T11:55:40.509Z,7.00
2019-02-22T11:57:19.485Z,10.20
2019-02-22T11:58:57.806Z,3.00
2019-02-22T12:00:34.249Z,12.00
2019-02-22T12:02:14.467Z,6.20
2019-02-22T12:04:03.910Z,9.40
2019-02-22T12:05:39.304Z,8.60
2019-02-22T12:07:37.493Z,12.00
2019-02-22T12:09:12.802Z,11.00
2019-02-22T12:11:11.620Z,9.00
2019-02-22T12:12:47.115Z,8.40
2019-02-22T12:14:23.659Z,9.00
2019-02-22T12:16:12.714Z,12.20
2019-02-22T12:17:48.145Z,9.40
2019-02-22T12:19:23.835Z,7.40
2019-02-22T12:20:58.974Z,7.60
2019-02-22T12:22:41.901Z,12.00
2019-02-22T12:24:21.270Z,3.00
2019-02-22T12:26:00.260Z,7.00
2019-02-22T12:27:40.211Z,7.20
2019-02-22T12:29:18.191Z,4.00
2019-02-22T12:30:56.518Z,7.00
2019-02-22T12:32:39.684Z,7.00
2019-02-22T12:34:20.322Z,8.20
2019-02-22T12:35:58.445Z,11.20
2019-02-22T12:37:36.795Z,9.00
2019-02-22T12:39:12.287Z,13.00
2019-02-22T12:40:47.554Z,10.80
2019-02-22T12:42:23.747Z,6.60
2019-02-22T12:44:00.376Z,8.40
2019-02-22T12:45:47.246Z,8.00
2019-02-22T12:47:30.483Z,10.20
2019-02-22T12:49:06.021Z,12.40
2019-02-22T12:50:41.520Z,9.80
2019-02-22T12:52:23.612Z,9.80
2019-02-22T12:53:59.586Z,9.60
2019-02-22T12:55:39.910Z,10.20
2019-02-22T12:57:27.661Z,7.00
2019-02-22T12:59:06.342Z,9.20
2019-02-22T13:00:56.342Z,10.40
2019-02-22T13:02:34.907Z,10.60
2019-02-22T13:04:14.046Z,7.20
2019-02-22T13:05:54.367Z,9.60
2019-02-22T13:07:39.496Z,7.00
2019-02-22T13:09:14.873Z,10.00
2019-02-22T13:10:50.804Z,9.00
2019-02-22T13:12:26.443Z,10.00
2019-02-22T13:14:01.937Z,7.80
2019-02-22T13:15:49.917Z,6.60
2019-02-22T13:17:31.084Z,10.00
2019-02-22T13:19:05.198Z,6.00
2019-02-22T13:20:46.545Z,9.80
2019-02-22T13:22:29.580Z,11.00
2019-02-22T13:24:10.198Z,9.80
2019-02-22T13:25:45.620Z,7.80
2019-02-22T13:27:22.398Z,9.40
2019-02-22T13:29:05.555Z,13.60
2019-02-22T13:30:47.998Z,7.40
2019-02-22T13:32:29.452Z,7.20
2019-02-22T13:34:05.163Z,6.60
2019-02-22T13:35:40.742Z,10.40
2019-02-22T13:37:18.136Z,4.40
2019-02-22T13:38:53.686Z,7.00
2019-02-22T13:40:29.889Z,9.20
2019-02-22T13:42:08.213Z,9.20
2019-02-22T13:43:48.530Z,9.00
2019-02-22T13:45:26.948Z,6.40
2019-02-22T13:47:05.176Z,6.60
2019-02-22T13:48:43.688Z,9.40
2019-02-22T13:50:19.436Z,10.00
2019-02-22T13:51:55.958Z,9.40
2019-02-22T13:53:31.580Z,5.60
2019-02-22T13:55:10.730Z,5.60
2019-02-22T13:56:48.966Z,9.80
2019-02-22T13:58:30.091Z,8.60
2019-02-22T14:00:19.448Z,3.80
2019-02-22T14:02:12.276Z,7.00
2019-02-22T14:03:51.811Z,9.00
2019-02-22T14:05:28.219Z,7.40
2019-02-22T14:07:09.280Z,6.80
2019-02-22T14:08:49.317Z,5.60
2019-02-22T14:10:41.176Z,8.20
2019-02-22T14:12:26.252Z,6.40
2019-02-22T14:14:02.508Z,5.20
2019-02-22T14:15:42.951Z,6.00
2019-02-22T14:17:27.729Z,11.20
2019-02-22T14:19:06.312Z,4.00
2019-02-22T14:20:51.696Z,6.00
2019-02-22T14:22:33.196Z,5.20
2019-02-22T14:24:10.965Z,7.40
2019-02-22T14:25:51.803Z,6.20
2019-02-22T14:27:31.544Z,10.00
2019-02-22T14:29:09.047Z,6.00
2019-02-22T14:30:45.496Z,10.80
2019-02-22T14:32:26.365Z,9.80
2019-02-22T14:34:04.529Z,6.20
2019-02-22T14:35:43.895Z,9.20
2019-02-22T14:37:21.379Z,6.80
2019-02-22T14:38:59.933Z,6.20
2019-02-22T14:40:39.954Z,11.00
2019-02-22T14:42:22.240Z,12.00
2019-02-22T14:44:02.563Z,8.60
2019-02-22T14:45:49.636Z,9.00
2019-02-22T14:47:27.765Z,10.00
2019-02-22T14:49:38.198Z,9.60
2019-02-22T14:51:19.254Z,7.40
2019-02-22T14:53:03.599Z,10.80
2019-02-22T14:54:45.337Z,10.00
2019-02-22T14:56:25.141Z,9.40
2019-02-22T14:58:07.449Z,6.20
2019-02-22T14:59:49.049Z,7.80
2019-02-22T15:01:40.445Z,12.00
2019-02-22T15:03:44.636Z,9.20
2019-02-22T15:05:32.706Z,9.00
2019-02-22T15:07:12.591Z,9.20
2019-02-22T15:09:05.511Z,9.60
2019-02-22T15:10:43.043Z,12.20
2019-02-22T15:12:23.190Z,9.00
2019-02-22T15:14:04.729Z,6.20
2019-02-22T15:16:03.810Z,10.00
2019-02-22T15:18:02.427Z,9.40
2019-02-22T15:19:42.615Z,10.00
2019-02-22T15:21:24.421Z,12.00
2019-02-22T15:23:08.447Z,6.20
2019-02-22T15:24:53.648Z,13.80
2019-02-22T15:26:33.141Z,12.60
2019-02-22T15:28:15.781Z,13.80
2019-02-22T15:30:03.023Z,15.80
2019-02-22T15:31:44.300Z,9.80
2019-02-22T15:33:27.996Z,13.20
2019-02-22T15:35:15.286Z,18.20
2019-02-22T15:36:53.813Z,8.20
2019-02-22T15:38:34.700Z,12.00
2019-02-22T15:40:16.421Z,12.00
2019-02-22T15:41:58.830Z,12.40
2019-02-22T15:43:47.908Z,9.80
2019-02-22T15:45:51.144Z,12.00
2019-02-22T15:47:30.656Z,10.00
2019-02-22T15:49:07.925Z,16.60
2019-02-22T15:50:43.789Z,15.80
2019-02-22T15:52:22.561Z,18.00
2019-02-22T15:54:04.681Z,10.80
2019-02-22T15:55:45.012Z,13.40
2019-02-22T15:57:27.028Z,12.00
2019-02-22T15:59:21.030Z,7.80
2019-02-22T16:01:23.331Z,9.40
2019-02-22T16:02:55.640Z,10.80
2019-02-22T16:04:55.193Z,11.20
2019-02-22T16:06:33.506Z,11.80
2019-02-22T16:08:13.474Z,12.20
2019-02-22T16:09:50.028Z,10.00
2019-02-22T16:11:31.336Z,10.60
2019-02-22T16:13:09.712Z,6.00
2019-02-22T16:14:48.361Z,15.00
2019-02-22T16:16:27.706Z,11.20
2019-02-22T16:18:04.557Z,12.00
2019-02-22T16:19:44.121Z,12.60
2019-02-22T16:21:27.570Z,8.00
2019-02-22T16:23:09.296Z,10.80
2019-02-22T16:24:45.296Z,10.40
2019-02-22T16:26:36.469Z,7.80
2019-02-22T16:28:12.191Z,9.20
2019-02-22T16:29:51.120Z,12.20
2019-02-22T16:31:34.902Z,14.40
2019-02-22T16:33:17.133Z,11.80
2019-02-22T16:34:57.200Z,17.20
2019-02-22T16:36:43.131Z,15.60
2019-02-22T16:38:19.885Z,15.00
2019-02-22T16:40:04.704Z,14.80
2019-02-22T16:41:45.378Z,12.00
2019-02-22T16:43:23.996Z,13.00
2019-02-22T16:45:10.038Z,12.80
2019-02-22T16:46:43.138Z,10.00
2019-02-22T16:48:26.411Z,7.00
2019-02-22T16:50:29.921Z,12.60
2019-02-22T16:52:11.215Z,19.40
2019-02-22T16:53:51.648Z,15.20
2019-02-22T16:55:36.474Z,7.00
2019-02-22T16:57:12.459Z,9.00
2019-02-22T16:58:49.495Z,16.00
2019-02-22T17:00:26.286Z,16.00
2019-02-22T17:04:08.952Z,8.60
2019-02-22T17:05:46.292Z,4.00
2019-02-22T17:07:28.371Z,6.40
2019-02-22T17:09:19.160Z,14.40
2019-02-22T17:11:17.399Z,17.20
2019-02-22T17:12:55.153Z,14.40
2019-02-22T17:14:32.639Z,9.80
2019-02-22T17:16:11.639Z,10.00
2019-02-22T17:17:54.964Z,13.80
2019-02-22T17:20:13.274Z,9.00
2019-02-22T17:21:54.203Z,11.60
2019-02-22T17:23:35.828Z,16.00
2019-02-22T17:25:25.561Z,9.20
2019-02-22T17:27:25.588Z,12.80
2019-02-22T17:29:17.582Z,16.00
2019-02-22T17:30:50.108Z,14.80
2019-02-22T17:32:33.877Z,15.80
2019-02-22T17:34:11.622Z,17.60
2019-02-22T17:35:57.105Z,13.80
2019-02-22T17:37:37.813Z,16.80
2019-02-22T17:39:19.281Z,17.20
2019-02-22T17:41:00.001Z,22.00
2019-02-22T17:42:43.677Z,17.00
2019-02-22T17:44:24.426Z,13.20
2019-02-22T17:46:20.728Z,21.40
2019-02-22T17:48:00.463Z,23.60
2019-02-22T17:49:44.754Z,19.40
2019-02-22T17:51:26.448Z,16.40
2019-02-22T17:53:09.667Z,23.20
2019-02-22T17:54:50.603Z,22.20
2019-02-22T17:56:42.890Z,28.20
2019-02-22T17:58:24.605Z,33.00
2019-02-22T18:00:19.322Z,27.80
2019-02-22T18:02:13.984Z,27.00
2019-02-22T18:03:55.937Z,38.00
2019-02-22T18:05:35.317Z,30.00
2019-02-22T18:07:12.506Z,25.80
2019-02-22T18:08:55.879Z,55.20
2019-02-22T18:10:36.969Z,65.20
2019-02-22T18:12:30.667Z,45.80
2019-02-22T18:14:15.121Z,36.60
2019-02-22T18:15:59.636Z,50.20
2019-02-22T18:17:45.851Z,60.40
2019-02-22T18:19:31.825Z,35.20
2019-02-22T18:21:11.419Z,43.40
2019-02-22T18:22:47.846Z,46.60
2019-02-22T18:24:35.989Z,41.60
2019-02-22T18:26:23.209Z,31.80
2019-02-22T18:28:12.736Z,19.00
2019-02-22T18:29:58.329Z,17.80
2019-02-22T18:31:56.560Z,16.80
2019-02-22T18:33:41.036Z,24.00
2019-02-22T18:35:19.066Z,29.20
2019-02-22T18:37:07.887Z,27.20
2019-02-22T18:38:48.841Z,24.60
2019-02-22T18:40:28.897Z,22.40
2019-02-22T18:42:16.090Z,18.60
2019-02-22T18:44:00.758Z,27.60
2019-02-22T18:45:55.579Z,25.00
2019-02-22T18:47:39.359Z,25.80
2019-02-22T18:49:32.802Z,19.40
2019-02-22T18:51:19.920Z,24.20
2019-02-22T18:53:08.362Z,32.60
2019-02-22T18:54:46.179Z,36.40
2019-02-22T18:56:24.533Z,36.00
2019-02-22T18:58:05.503Z,66.80
2019-02-22T18:59:43.779Z,29.80
2019-02-22T19:01:23.746Z,37.80
2019-02-22T19:03:09.050Z,46.80
2019-02-22T19:04:49.473Z,50.40
2019-02-22T19:06:31.498Z,33.00
2019-02-22T19:10:13.821Z,41.80
2019-02-22T19:11:54.298Z,29.20
2019-02-22T19:13:31.510Z,37.20
2019-02-22T19:15:29.819Z,61.20
2019-02-22T19:17:11.675Z,63.60
2019-02-22T19:18:52.076Z,48.40
2019-02-22T19:20:35.092Z,50.80
2019-02-22T19:22:17.258Z,40.80
2019-02-22T19:23:55.448Z,37.80
2019-02-22T19:26:01.533Z,39.00
2019-02-22T19:27:39.058Z,30.00
2019-02-22T19:29:34.301Z,21.20
2019-02-22T19:31:08.928Z,37.00
2019-02-22T19:32:51.226Z,17.20
2019-02-22T19:34:35.935Z,30.60
2019-02-22T19:36:21.373Z,22.00
2019-02-22T19:38:00.370Z,25.40
2019-02-22T19:39:58.234Z,14.80
2019-02-22T19:41:41.010Z,30.00
2019-02-22T19:43:22.419Z,18.40
2019-02-22T19:44:58.027Z,39.80
2019-02-22T19:46:38.183Z,25.40
2019-02-22T19:48:16.745Z,22.00
2019-02-22T19:49:56.708Z,33.00
2019-02-22T19:51:34.557Z,35.20
2019-02-22T19:53:12.531Z,46.20
2019-02-22T19:54:50.346Z,29.40
2019-02-22T19:56:34.660Z,28.20
2019-02-22T19:58:10.317Z,19.60
2019-02-22T19:59:54.848Z,20.20
2019-02-22T20:01:42.077Z,19.80
2019-02-22T20:03:23.491Z,23.40
2019-02-22T20:05:06.171Z,14.40
2019-02-22T20:06:44.572Z,14.20
2019-02-22T20:08:22.296Z,11.00
2019-02-22T20:10:01.176Z,19.40
2019-02-22T20:11:41.503Z,17.20
2019-02-22T20:13:30.808Z,24.40
2019-02-22T20:15:13.231Z,26.60
2019-02-22T20:16:49.958Z,27.60
2019-02-22T20:18:30.957Z,22.00
2019-02-22T20:20:15.894Z,23.40
2019-02-22T20:21:47.315Z,21.60
2019-02-22T20:23:31.023Z,20.80
2019-02-22T20:25:09.790Z,20.80
2019-02-22T20:26:53.399Z,25.20
2019-02-22T20:28:42.748Z,18.80
2019-02-22T20:30:32.449Z,23.00
2019-02-22T20:32:12.947Z,22.00
2019-02-22T20:33:48.694Z,24.00
2019-02-22T20:35:32.812Z,19.40
2019-02-22T20:37:22.068Z,15.20
2019-02-22T20:39:10.109Z,20.80
2019-02-22T20:40:55.311Z,17.20
2019-02-22T20:42:29.801Z,19.60
2019-02-22T20:44:09.488Z,21.20
2019-02-22T20:45:50.060Z,20.20
2019-02-22T20:47:48.107Z,20.20
2019-02-22T20:49:22.548Z,23.20
2019-02-22T20:50:59.698Z,22.40
2019-02-22T20:52:59.450Z,23.20
2019-02-22T20:54:35.714Z,16.80
2019-02-22T20:56:24.838Z,31.00
2019-02-22T20:58:14.349Z,20.80
2019-02-22T21:00:00.279Z,19.20
2019-02-22T21:01:48.511Z,30.20
2019-02-22T21:03:35.020Z,21.80
2019-02-22T21:05:23.957Z,31.00
2019-02-22T21:07:03.492Z,13.40
2019-02-22T21:08:38.919Z,26.40
2019-02-22T21:10:32.979Z,25.00
2019-02-22T21:12:15.978Z,22.40
2019-02-22T21:14:02.288Z,34.00
2019-02-22T21:15:41.032Z,23.60
2019-02-22T21:17:25.934Z,24.00
2019-02-22T21:19:02.180Z,21.60
2019-02-22T21:20:51.845Z,17.20
2019-02-22T21:22:37.190Z,20.20
2019-02-22T21:24:17.538Z,22.00
2019-02-22T21:25:56.176Z,17.60
2019-02-22T21:27:46.361Z,19.00
2019-02-22T21:29:21.653Z,17.60
2019-02-22T21:31:13.488Z,18.40
2019-02-22T21:32:47.782Z,20.40
2019-02-22T21:34:33.902Z,20.60
2019-02-22T21:36:14.179Z,19.80
2019-02-22T21:37:52.598Z,26.20
2019-02-22T21:39:38.551Z,18.60
2019-02-22T21:42:20.018Z,19.20
2019-02-22T21:43:42.315Z,37.60
2019-02-22T21:45:32.409Z,22.40
2019-02-22T21:47:13.327Z,27.80
2019-02-22T21:49:01.635Z,24.40
2019-02-22T21:50:41.293Z,17.40
2019-02-22T21:52:26.369Z,14.20
2019-02-22T21:54:04.550Z,16.00
2019-02-22T21:55:43.147Z,21.00
2019-02-22T21:57:27.099Z,19.80
2019-02-22T21:59:03.603Z,17.40